createdAt,value
2016-02-12T00:00:59.927Z,48.9
2016-02-12T00:01:59.914Z,48.9
2016-02-12T00:02:59.885Z,48.8
2016-02-12T00:03:59.857Z,48.8
2016-02-12T00:04:59.845Z,48.9
2016-02-12T00:05:59.816Z,48.99
2016-02-12T00:06:59.787Z,48.9
2016-02-12T00:07:59.774Z,48.8
2016-02-12T00:08:59.935Z,48.8
2016-02-12T00:09:59.718Z,48.8
2016-02-12T00:10:59.681Z,48.8
2016-02-12T00:11:59.670Z,48.99
2016-02-12T00:12:59.643Z,48.99
2016-02-12T00:13:59.614Z,48.71
2016-02-12T00:14:59.601Z,48.9
2016-02-12T00:15:59.572Z,48.8
2016-02-12T00:16:59.560Z,48.99
2016-02-12T00:17:59.547Z,48.71
2016-02-12T00:18:59.518Z,48.71
2016-02-12T00:19:59.475Z,48.99
2016-02-12T00:20:59.446Z,48.61
2016-02-12T00:21:59.277Z,48.99
2016-02-12T00:22:59.404Z,49.09
2016-02-12T00:23:59.382Z,48.99
2016-02-12T00:24:59.326Z,48.99
2016-02-12T00:25:59.316Z,48.61
2016-02-12T00:26:59.260Z,48.99
2016-02-12T00:27:59.235Z,48.8
2016-02-12T00:28:59.197Z,48.99
2016-02-12T00:29:59.165Z,48.9
2016-02-12T00:30:59.147Z,48.9
2016-02-12T00:31:59.115Z,48.8
2016-02-12T00:32:59.082Z,48.99
2016-02-12T00:33:59.052Z,49.47
2016-02-12T00:34:59.054Z,49.09
2016-02-12T00:35:59.023Z,49.09
2016-02-12T00:36:58.997Z,48.99
2016-02-12T00:37:59.045Z,48.61
2016-02-12T00:38:58.969Z,48.71
2016-02-12T00:39:58.923Z,48.8
2016-02-12T00:40:58.926Z,48.8
2016-02-12T00:41:58.849Z,48.71
2016-02-12T00:42:58.833Z,48.61
2016-02-12T00:43:58.835Z,48.8
2016-02-12T00:44:58.823Z,48.9
2016-02-12T00:45:58.747Z,48.71
2016-02-12T00:46:58.734Z,48.61
2016-02-12T00:47:58.720Z,48.8
2016-02-12T00:48:58.676Z,48.8
2016-02-12T00:49:58.664Z,48.71
2016-02-12T00:50:58.651Z,48.8
2016-02-12T00:51:58.606Z,48.71
2016-02-12T00:52:58.593Z,48.99
2016-02-12T00:53:58.565Z,48.9
2016-02-12T00:54:58.553Z,49.18
2016-02-12T00:55:58.524Z,49.18
2016-02-12T00:56:58.496Z,48.71
2016-02-12T00:57:58.467Z,48.71
2016-02-12T00:58:58.455Z,49.09
2016-02-12T00:59:58.426Z,48.9
2016-02-12T01:00:58.398Z,48.9
2016-02-12T01:01:58.369Z,48.9
2016-02-12T01:02:58.365Z,48.9
2016-02-12T01:03:58.321Z,48.9
2016-02-12T01:04:58.292Z,48.9
2016-02-12T01:05:58.576Z,49.18
2016-02-12T01:06:58.251Z,48.99
2016-02-12T01:07:58.237Z,48.99
2016-02-12T01:08:58.224Z,49.09
2016-02-12T01:09:58.181Z,48.9
2016-02-12T01:10:58.152Z,48.99
2016-02-12T01:11:58.142Z,49.09
2016-02-12T01:12:58.116Z,48.8
2016-02-12T01:13:58.088Z,49.18
2016-02-12T01:14:58.060Z,49.09
2016-02-12T01:15:58.046Z,49.18
2016-02-12T01:16:58.018Z,49.09
2016-02-12T01:17:58.004Z,48.9
2016-02-12T01:18:57.960Z,48.99
2016-02-12T01:19:57.949Z,48.71
2016-02-12T01:20:57.794Z,48.8
2016-02-12T01:21:57.922Z,48.9
2016-02-12T01:22:57.879Z,48.71
2016-02-12T01:23:57.850Z,49.18
2016-02-12T01:24:57.837Z,49.09
2016-02-12T01:25:57.793Z,48.8
2016-02-12T01:26:57.779Z,48.8
2016-02-12T01:27:57.767Z,48.9
2016-02-12T01:28:57.723Z,49.09
2016-02-12T01:29:57.710Z,49.18
2016-02-12T01:30:57.681Z,49.18
2016-02-12T01:31:57.669Z,48.71
2016-02-12T01:32:57.641Z,48.71
2016-02-12T01:33:57.612Z,48.9
2016-02-12T01:34:57.583Z,48.61
2016-02-12T01:35:57.556Z,48.9
2016-02-12T01:36:57.543Z,48.9
2016-02-12T01:37:57.514Z,49.09
2016-02-12T01:38:57.502Z,49.38
2016-02-12T01:39:57.476Z,48.99
2016-02-12T01:40:57.447Z,48.71
2016-02-12T01:41:57.419Z,48.8
2016-02-12T01:42:57.440Z,49.18
2016-02-12T01:43:57.364Z,48.9
2016-02-12T01:44:57.352Z,49.09
2016-02-12T01:45:57.323Z,49.09
2016-02-12T01:46:57.311Z,49.09
2016-02-12T01:47:57.266Z,49.18
2016-02-12T01:48:57.239Z,49.18
2016-02-12T01:49:57.225Z,49.18
2016-02-12T01:50:57.197Z,48.8
2016-02-12T01:51:57.184Z,49.09
2016-02-12T01:52:57.155Z,49.09
2016-02-12T01:53:57.127Z,48.9
2016-02-12T01:54:57.098Z,49.09
2016-02-12T01:55:57.085Z,49.18
2016-02-12T01:56:57.104Z,49.18
2016-02-12T01:57:57.045Z,48.99
2016-02-12T01:58:57.016Z,49.09
2016-02-12T01:59:57.003Z,49.18
2016-02-12T02:00:56.959Z,49.09
2016-02-12T02:01:56.977Z,49.09
2016-02-12T02:02:56.917Z,49.09
2016-02-12T02:03:56.904Z,49.09
2016-02-12T02:04:56.860Z,49.09
2016-02-12T02:05:56.848Z,49.18
2016-02-12T02:06:56.835Z,49.09
2016-02-12T02:07:56.807Z,48.99
2016-02-12T02:08:56.653Z,49.18
2016-02-12T02:09:56.765Z,49.09
2016-02-12T02:10:56.721Z,49.09
2016-02-12T02:11:56.723Z,49.09
2016-02-12T02:12:56.681Z,49.18
2016-02-12T02:13:56.653Z,49.18
2016-02-12T02:14:56.625Z,49.28
2016-02-12T02:15:56.611Z,49.38
2016-02-12T02:16:56.583Z,49.28
2016-02-12T02:17:56.570Z,49.18
2016-02-12T02:18:56.526Z,49.18
2016-02-12T02:19:56.513Z,49.18
2016-02-12T02:20:56.485Z,49.18
2016-02-12T02:21:56.456Z,49.18
2016-02-12T02:22:56.443Z,49.28
2016-02-12T02:23:56.415Z,49.18
2016-02-12T02:24:56.495Z,49.38
2016-02-12T02:25:56.357Z,49.28
2016-02-12T02:26:56.345Z,49.18
2016-02-12T02:27:56.315Z,49.18
2016-02-12T02:28:56.287Z,49.18
2016-02-12T02:29:56.274Z,49.28
2016-02-12T02:30:56.246Z,49.28
2016-02-12T02:31:56.217Z,49.28
2016-02-12T02:32:56.189Z,49.38
2016-02-12T02:33:56.192Z,49.18
2016-02-12T02:34:56.147Z,49.18
2016-02-12T02:35:56.134Z,49.47
2016-02-12T02:36:56.122Z,49.76
2016-02-12T02:37:56.077Z,49.28
2016-02-12T02:38:56.064Z,49.38
2016-02-12T02:39:56.021Z,49.28
2016-02-12T02:40:56.008Z,49.38
2016-02-12T02:41:55.995Z,49.47
2016-02-12T02:42:55.971Z,49.18
2016-02-12T02:43:55.926Z,49.18
2016-02-12T02:44:55.913Z,49.28
2016-02-12T02:45:55.900Z,49.18
2016-02-12T02:46:55.856Z,49.18
2016-02-12T02:47:55.827Z,49.38
2016-02-12T02:48:55.817Z,49.28
2016-02-12T02:49:55.788Z,49.28
2016-02-12T02:50:55.759Z,49.28
2016-02-12T02:51:55.747Z,49.28
2016-02-12T02:52:55.719Z,49.38
2016-02-12T02:53:55.721Z,49.38
2016-02-12T02:54:55.663Z,49.38
2016-02-12T02:55:55.649Z,49.28
2016-02-12T02:56:55.620Z,49.28
2016-02-12T02:57:55.607Z,49.18
2016-02-12T02:58:55.579Z,49.38
2016-02-12T02:59:55.583Z,49.09
2016-02-12T03:00:55.523Z,49.28
2016-02-12T03:01:55.511Z,49.57
2016-02-12T03:02:55.466Z,49.38
2016-02-12T03:03:55.453Z,50.04
2016-02-12T03:04:55.706Z,49.57
2016-02-12T03:05:55.412Z,49.76
2016-02-12T03:06:55.383Z,49.76
2016-02-12T03:07:55.355Z,49.18
2016-02-12T03:08:55.329Z,49.66
2016-02-12T03:09:55.299Z,49.09
2016-02-12T03:10:55.287Z,49.09
2016-02-12T03:11:55.263Z,49.28
2016-02-12T03:12:55.234Z,49.09
2016-02-12T03:13:55.206Z,49.66
2016-02-12T03:14:55.179Z,49.57
2016-02-12T03:15:55.165Z,49.66
2016-02-12T03:16:55.137Z,49.18
2016-02-12T03:17:55.109Z,49.57
2016-02-12T03:18:55.112Z,49.66
2016-02-12T03:19:55.068Z,49.18
2016-02-12T03:20:55.039Z,49.57
2016-02-12T03:21:55.011Z,49.76
2016-02-12T03:22:54.997Z,49.76
2016-02-12T03:23:54.969Z,49.47
2016-02-12T03:24:54.957Z,49.57
2016-02-12T03:25:54.927Z,49.57
2016-02-12T03:26:54.900Z,49.28
2016-02-12T03:27:54.871Z,49.57
2016-02-12T03:28:54.857Z,49.85
2016-02-12T03:29:54.829Z,49.18
2016-02-12T03:30:54.801Z,49.66
2016-02-12T03:31:54.771Z,49.76
2016-02-12T03:32:54.759Z,49.66
2016-02-12T03:33:54.746Z,49.18
2016-02-12T03:34:54.703Z,49.18
2016-02-12T03:35:54.674Z,49.66
2016-02-12T03:36:54.661Z,49.85
2016-02-12T03:37:54.634Z,49.85
2016-02-12T03:38:54.605Z,49.57
2016-02-12T03:39:54.592Z,49.47
2016-02-12T03:40:54.595Z,49.38
2016-02-12T03:41:54.535Z,49.66
2016-02-12T03:42:54.511Z,49.38
2016-02-12T03:43:54.498Z,49.47
2016-02-12T03:44:54.470Z,49.47
2016-02-12T03:45:54.456Z,49.57
2016-02-12T03:46:54.443Z,49.47
2016-02-12T03:47:54.396Z,49.28
2016-02-12T03:48:54.367Z,49.95
2016-02-12T03:49:54.339Z,49.47
2016-02-12T03:50:54.325Z,49.57
2016-02-12T03:51:54.314Z,49.38
2016-02-12T03:52:54.284Z,49.76
2016-02-12T03:53:54.256Z,49.38
2016-02-12T03:54:54.228Z,49.66
2016-02-12T03:55:54.231Z,49.47
2016-02-12T03:56:54.171Z,49.38
2016-02-12T03:57:54.158Z,49.66
2016-02-12T03:58:54.130Z,49.66
2016-02-12T03:59:54.117Z,49.09
2016-02-12T04:00:54.072Z,49.66
2016-02-12T04:01:54.075Z,49.47
2016-02-12T04:02:54.031Z,49.57
2016-02-12T04:03:54.003Z,49.57
2016-02-12T04:04:53.990Z,49.76
2016-02-12T04:05:53.961Z,49.66
2016-02-12T04:06:53.948Z,49.85
2016-02-12T04:07:53.905Z,49.85
2016-02-12T04:08:53.891Z,49.85
2016-02-12T04:09:53.863Z,49.85
2016-02-12T04:10:53.834Z,49.85
2016-02-12T04:11:53.656Z,50.24
2016-02-12T04:12:53.798Z,49.85
2016-02-12T04:13:53.770Z,49.85
2016-02-12T04:14:53.773Z,49.85
2016-02-12T04:15:53.729Z,50.14
2016-02-12T04:16:53.700Z,49.95
2016-02-12T04:17:53.673Z,49.76
2016-02-12T04:18:53.644Z,49.47
2016-02-12T04:19:53.615Z,50.14
2016-02-12T04:20:53.605Z,49.85
2016-02-12T04:21:53.575Z,50.04
2016-02-12T04:22:53.547Z,49.38
2016-02-12T04:23:53.534Z,49.57
2016-02-12T04:24:53.505Z,49.76
2016-02-12T04:25:53.477Z,49.66
2016-02-12T04:26:53.449Z,49.57
2016-02-12T04:27:53.435Z,49.85
2016-02-12T04:28:53.409Z,49.95
2016-02-12T04:29:53.395Z,49.76
2016-02-12T04:30:53.368Z,49.76
2016-02-12T04:31:53.339Z,50.14
2016-02-12T04:32:53.309Z,49.95
2016-02-12T04:33:53.282Z,49.85
2016-02-12T04:34:53.253Z,49.85
2016-02-12T04:35:53.240Z,49.85
2016-02-12T04:36:53.228Z,49.66
2016-02-12T04:37:53.199Z,49.85
2016-02-12T04:38:53.171Z,49.85
2016-02-12T04:39:53.143Z,50.04
2016-02-12T04:40:53.117Z,49.76
2016-02-12T04:41:53.103Z,49.76
2016-02-12T04:42:53.076Z,49.85
2016-02-12T04:43:53.062Z,49.85
2016-02-12T04:44:53.034Z,49.85
2016-02-12T04:45:53.021Z,49.76
2016-02-12T04:46:52.978Z,50.04
2016-02-12T04:47:53.199Z,49.85
2016-02-12T04:48:52.922Z,49.76
2016-02-12T04:49:52.893Z,49.66
2016-02-12T04:50:52.880Z,49.85
2016-02-12T04:51:52.867Z,49.76
2016-02-12T04:52:52.886Z,49.85
2016-02-12T04:53:52.810Z,49.85
2016-02-12T04:54:52.782Z,49.76
2016-02-12T04:55:52.752Z,49.85
2016-02-12T04:56:52.725Z,49.95
2016-02-12T04:57:52.711Z,49.95
2016-02-12T04:58:52.682Z,50.04
2016-02-12T04:59:52.670Z,49.76
2016-02-12T05:00:52.641Z,50.04
2016-02-12T05:01:52.613Z,49.85
2016-02-12T05:02:52.585Z,49.95
2016-02-12T05:03:52.571Z,50.04
2016-02-12T05:04:52.543Z,50.04
2016-02-12T05:05:52.530Z,49.85
2016-02-12T05:06:52.503Z,49.85
2016-02-12T05:07:52.489Z,49.85
2016-02-12T05:08:52.445Z,49.85
2016-02-12T05:09:52.416Z,49.57
2016-02-12T05:10:52.404Z,49.57
2016-02-12T05:11:52.379Z,49.47
2016-02-12T05:12:52.352Z,49.66
2016-02-12T05:13:52.338Z,49.57
2016-02-12T05:14:52.310Z,49.76
2016-02-12T05:15:52.297Z,49.66
2016-02-12T05:16:52.268Z,49.76
2016-02-12T05:17:52.240Z,49.76
2016-02-12T05:18:52.212Z,49.76
2016-02-12T05:19:52.184Z,49.85
2016-02-12T05:20:52.155Z,49.85
2016-02-12T05:21:52.142Z,49.85
2016-02-12T05:22:52.130Z,49.85
2016-02-12T05:23:52.086Z,49.76
2016-02-12T05:24:52.058Z,49.76
2016-02-12T05:25:52.045Z,49.66
2016-02-12T05:26:52.016Z,49.85
2016-02-12T05:27:51.987Z,49.76
2016-02-12T05:28:51.959Z,49.95
2016-02-12T05:29:51.946Z,49.85
2016-02-12T05:30:51.918Z,49.85
2016-02-12T05:31:51.888Z,49.66
2016-02-12T05:32:51.860Z,49.85
2016-02-12T05:33:51.863Z,49.85
2016-02-12T05:34:51.835Z,49.85
2016-02-12T05:35:51.807Z,49.95
2016-02-12T05:36:51.777Z,49.76
2016-02-12T05:37:51.764Z,49.76
2016-02-12T05:38:51.736Z,49.85
2016-02-12T05:39:51.707Z,49.76
2016-02-12T05:40:51.685Z,49.66
2016-02-12T05:41:51.657Z,49.66
2016-02-12T05:42:51.627Z,49.66
2016-02-12T05:43:51.632Z,49.66
2016-02-12T05:44:51.806Z,49.76
2016-02-12T05:45:51.559Z,49.66
2016-02-12T05:46:51.531Z,49.47
2016-02-12T05:47:51.517Z,49.57
2016-02-12T05:48:51.490Z,49.85
2016-02-12T05:49:51.509Z,49.83
2016-02-12T05:50:51.448Z,49.66
2016-02-12T05:51:51.421Z,49.66
2016-02-12T05:52:51.392Z,49.66
2016-02-12T05:53:51.363Z,49.64
2016-02-12T05:54:51.334Z,49.66
2016-02-12T05:55:51.322Z,49.66
2016-02-12T05:56:51.293Z,49.85
2016-02-12T05:57:51.283Z,49.66
2016-02-12T05:58:51.239Z,49.66
2016-02-12T05:59:51.226Z,49.76
2016-02-12T06:00:51.200Z,49.76
2016-02-12T06:01:51.172Z,49.66
2016-02-12T06:02:51.159Z,49.85
2016-02-12T06:03:51.114Z,50.02
2016-02-12T06:04:51.101Z,49.76
2016-02-12T06:05:51.073Z,49.93
2016-02-12T06:06:51.061Z,49.83
2016-02-12T06:07:51.031Z,49.76
2016-02-12T06:08:51.003Z,49.66
2016-02-12T06:09:50.975Z,49.66
2016-02-12T06:10:50.949Z,49.66
2016-02-12T06:11:50.937Z,49.85
2016-02-12T06:12:50.909Z,49.73
2016-02-12T06:13:50.895Z,49.66
2016-02-12T06:14:50.882Z,49.83
2016-02-12T06:15:50.838Z,49.83
2016-02-12T06:16:50.825Z,50.12
2016-02-12T06:17:50.782Z,49.83
2016-02-12T06:18:50.769Z,49.64
2016-02-12T06:19:50.740Z,49.85
2016-02-12T06:20:50.727Z,49.83
2016-02-12T06:21:50.698Z,49.64
2016-02-12T06:22:50.671Z,49.64
2016-02-12T06:23:50.642Z,49.54
2016-02-12T06:24:50.629Z,49.76
2016-02-12T06:25:50.601Z,49.85
2016-02-12T06:26:50.572Z,49.73
2016-02-12T06:27:50.544Z,49.57
2016-02-12T06:28:50.532Z,49.66
2016-02-12T06:29:50.502Z,49.66
2016-02-12T06:30:50.474Z,49.54
2016-02-12T06:31:50.461Z,49.54
2016-02-12T06:32:50.433Z,49.54
2016-02-12T06:33:50.420Z,49.66
2016-02-12T06:34:50.378Z,49.73
2016-02-12T06:35:50.365Z,49.64
2016-02-12T06:36:50.337Z,49.64
2016-02-12T06:37:50.308Z,49.76
2016-02-12T06:38:50.279Z,49.64
2016-02-12T06:39:50.267Z,49.57
2016-02-12T06:40:50.238Z,49.66
2016-02-12T06:41:50.507Z,49.73
2016-02-12T06:42:50.197Z,49.85
2016-02-12T06:43:50.156Z,49.83
2016-02-12T06:44:50.142Z,49.54
2016-02-12T06:45:50.115Z,49.93
2016-02-12T06:46:50.257Z,49.83
2016-02-12T06:47:50.073Z,49.66
2016-02-12T06:48:50.045Z,49.83
2016-02-12T06:49:50.015Z,49.54
2016-02-12T06:50:50.003Z,49.57
2016-02-12T06:51:49.976Z,49.73
2016-02-12T06:52:49.947Z,49.76
2016-02-12T06:53:49.934Z,49.73
2016-02-12T06:54:49.905Z,49.64
2016-02-12T06:55:49.877Z,49.64
2016-02-12T06:56:49.849Z,49.64
2016-02-12T06:57:49.836Z,49.83
2016-02-12T06:58:49.807Z,49.57
2016-02-12T06:59:49.779Z,49.57
2016-02-12T07:00:49.750Z,49.85
2016-02-12T07:01:49.739Z,49.83
2016-02-12T07:02:49.725Z,49.57
2016-02-12T07:03:49.681Z,49.76
2016-02-12T07:04:49.684Z,49.83
2016-02-12T07:05:49.640Z,49.66
2016-02-12T07:06:49.612Z,49.76
2016-02-12T07:07:49.600Z,49.73
2016-02-12T07:08:49.570Z,49.73
2016-02-12T07:09:49.559Z,49.64
2016-02-12T07:10:49.514Z,49.85
2016-02-12T07:11:49.506Z,49.85
2016-02-12T07:12:49.492Z,49.73
2016-02-12T07:13:49.432Z,49.66
2016-02-12T07:14:49.436Z,49.66
2016-02-12T07:15:49.391Z,49.57
2016-02-12T07:16:49.377Z,49.66
2016-02-12T07:17:49.350Z,49.66
2016-02-12T07:18:49.321Z,49.66
2016-02-12T07:19:49.293Z,49.66
2016-02-12T07:20:49.279Z,49.76
2016-02-12T07:21:49.251Z,49.66
2016-02-12T07:22:49.223Z,49.83
2016-02-12T07:23:49.209Z,49.66
2016-02-12T07:24:49.181Z,49.64
2016-02-12T07:25:49.184Z,49.64
2016-02-12T07:26:49.123Z,49.85
2016-02-12T07:27:49.112Z,49.83
2016-02-12T07:28:49.082Z,49.66
2016-02-12T07:29:49.054Z,49.64
2016-02-12T07:30:49.072Z,49.85
2016-02-12T07:31:49.012Z,49.64
2016-02-12T07:32:48.984Z,49.57
2016-02-12T07:33:48.970Z,49.57
2016-02-12T07:34:48.943Z,49.64
2016-02-12T07:35:48.914Z,49.66
2016-02-12T07:36:48.916Z,49.54
2016-02-12T07:37:48.857Z,49.66
2016-02-12T07:38:48.845Z,49.83
2016-02-12T07:39:48.815Z,50.43
2016-02-12T07:40:48.788Z,49.64
2016-02-12T07:41:48.807Z,50.04
2016-02-12T07:42:48.746Z,49.73
2016-02-12T07:43:48.952Z,49.66
2016-02-12T07:44:48.690Z,49.83
2016-02-12T07:45:48.677Z,49.85
2016-02-12T07:46:48.664Z,49.66
2016-02-12T07:47:48.621Z,50.14
2016-02-12T07:48:48.608Z,49.83
2016-02-12T07:49:48.594Z,49.76
2016-02-12T07:50:48.567Z,49.66
2016-02-12T07:51:48.553Z,49.66
2016-02-12T07:52:48.524Z,49.66
2016-02-12T07:53:48.480Z,49.66
2016-02-12T07:54:48.452Z,49.76
2016-02-12T07:55:48.503Z,49.66
2016-02-12T07:56:48.442Z,49.66
2016-02-12T07:57:48.492Z,49.76
2016-02-12T07:58:48.589Z,49.76
2016-02-12T07:59:48.341Z,49.66
2016-02-12T08:00:48.328Z,49.76
2016-02-12T08:01:48.394Z,49.66
2016-02-12T08:02:48.427Z,49.66
2016-02-12T08:03:48.292Z,49.66
2016-02-12T08:04:48.232Z,49.85
2016-02-12T08:05:48.218Z,49.85
2016-02-12T08:06:48.206Z,49.66
2016-02-12T08:07:48.162Z,49.76
2016-02-12T08:08:48.134Z,49.76
2016-02-12T08:09:48.151Z,49.85
2016-02-12T08:10:48.154Z,49.66
2016-02-12T08:11:48.048Z,49.73
2016-02-12T08:12:48.051Z,49.76
2016-02-12T08:13:48.057Z,49.66
2016-02-12T08:14:48.029Z,49.57
2016-02-12T08:15:48.219Z,49.66
2016-02-12T08:16:47.956Z,50.04
2016-02-12T08:17:47.928Z,49.76
2016-02-12T08:18:47.977Z,49.76
2016-02-12T08:19:47.886Z,49.66
2016-02-12T08:20:47.922Z,50.14
2016-02-12T08:21:47.846Z,50.43
2016-02-12T08:22:47.818Z,49.76
2016-02-12T08:23:47.793Z,49.66
2016-02-12T08:24:47.733Z,49.76
2016-02-12T08:25:47.813Z,49.66
2016-02-12T08:26:47.770Z,49.85
2016-02-12T08:27:47.740Z,49.85
2016-02-12T08:28:47.695Z,49.66
2016-02-12T08:29:47.527Z,49.76
2016-02-12T08:30:47.713Z,49.85
2016-02-12T08:31:47.637Z,50.04
2016-02-12T08:32:47.609Z,49.66
2016-02-12T08:33:47.580Z,49.85
2016-02-12T08:34:47.584Z,49.76
2016-02-12T08:35:47.554Z,49.76
2016-02-12T08:36:47.526Z,49.76
2016-02-12T08:37:47.435Z,49.66
2016-02-12T08:38:47.422Z,49.18
2016-02-12T08:39:47.440Z,49.76
2016-02-12T08:40:47.683Z,49.18
2016-02-12T08:41:47.341Z,49.38
2016-02-12T08:42:47.328Z,49.28
2016-02-12T08:43:47.333Z,49.57
2016-02-12T08:44:47.304Z,49.28
2016-02-12T08:45:47.276Z,49.28
2016-02-12T08:46:47.294Z,49.85
2016-02-12T08:47:47.281Z,49.28
2016-02-12T08:48:47.238Z,49.38
2016-02-12T08:49:47.148Z,49.47
2016-02-12T08:50:47.120Z,49.47
2016-02-12T08:51:47.137Z,49.28
2016-02-12T08:52:47.093Z,49.28
2016-02-12T08:53:47.112Z,49.18
2016-02-12T08:54:47.067Z,49.18
2016-02-12T08:55:47.023Z,49.66
2016-02-12T08:56:47.042Z,49.66
2016-02-12T08:57:46.997Z,49.66
2016-02-12T08:58:46.954Z,49.66
2016-02-12T08:59:46.910Z,49.57
2016-02-12T09:00:46.897Z,49.95
2016-02-12T09:01:46.868Z,49.76
2016-02-12T09:02:46.871Z,50.24
2016-02-12T09:03:46.873Z,49.18
2016-02-12T09:04:46.834Z,49.18
2016-02-12T09:05:46.837Z,49.28
2016-02-12T09:06:46.809Z,49.09
2016-02-12T09:07:46.796Z,49.57
2016-02-12T09:08:46.783Z,49.47
2016-02-12T09:09:46.786Z,49.57
2016-02-12T09:10:46.679Z,49.09
2016-02-12T09:11:46.635Z,49.66
2016-02-12T09:12:46.672Z,49.18
2016-02-12T09:13:46.564Z,49.28
2016-02-12T09:14:46.552Z,49.28
2016-02-12T09:15:46.525Z,49.18
2016-02-12T09:16:46.356Z,49.09
2016-02-12T09:17:46.467Z,49.28
2016-02-12T09:18:46.453Z,49.09
2016-02-12T09:19:46.426Z,49.09
2016-02-12T09:20:46.414Z,49.09
2016-02-12T09:21:46.385Z,49.09
2016-02-12T09:22:46.373Z,49.18
2016-02-12T09:23:46.343Z,49.38
2016-02-12T09:24:46.317Z,49.18
2016-02-12T09:25:46.289Z,49.18
2016-02-12T09:26:46.261Z,49.18
2016-02-12T09:27:46.248Z,49.09
2016-02-12T09:28:46.220Z,49.09
2016-02-12T09:29:46.187Z,49.09
2016-02-12T09:30:46.147Z,48.9
2016-02-12T09:31:46.292Z,49.18
2016-02-12T09:32:46.080Z,49.09
2016-02-12T09:33:46.061Z,49.18
2016-02-12T09:34:46.005Z,49.09
2016-02-12T09:35:46.019Z,49.09
2016-02-12T09:36:45.955Z,49.18
2016-02-12T09:37:45.936Z,49.38
2016-02-12T09:38:45.887Z,49.09
2016-02-12T09:39:45.872Z,49.09
2016-02-12T09:40:45.840Z,49.09
2016-02-12T09:41:45.842Z,49.18
2016-02-12T09:42:45.813Z,49.28
2016-02-12T09:43:45.767Z,49.09
2016-02-12T09:44:45.754Z,49.18
2016-02-12T09:45:45.725Z,49.09
2016-02-12T09:46:45.695Z,49.28
2016-02-12T09:47:45.666Z,49.18
2016-02-12T09:48:45.637Z,49.18
2016-02-12T09:49:45.623Z,49.18
2016-02-12T09:50:45.595Z,49.18
2016-02-12T09:51:45.582Z,49.18
2016-02-12T09:52:45.540Z,49.18
2016-02-12T09:53:45.528Z,49.38
2016-02-12T09:54:45.515Z,49.18
2016-02-12T09:55:45.471Z,49.18
2016-02-12T09:56:45.458Z,49.28
2016-02-12T09:57:45.429Z,49.38
2016-02-12T09:58:45.400Z,49.28
2016-02-12T09:59:45.387Z,49.38
2016-02-12T10:00:45.359Z,49.38
2016-02-12T10:01:45.425Z,49.28
2016-02-12T10:02:48.659Z,49.18
2016-02-12T10:03:45.271Z,49.09
2016-02-12T10:04:45.259Z,49.18
2016-02-12T10:05:45.231Z,49.28
2016-02-12T10:06:45.062Z,49.18
2016-02-12T10:07:45.190Z,49.28
2016-02-12T10:08:45.161Z,49.18
2016-02-12T10:09:45.132Z,49.28
2016-02-12T10:10:45.121Z,49.18
2016-02-12T10:11:45.094Z,49.38
2016-02-12T10:12:45.065Z,48.99
2016-02-12T10:13:45.041Z,48.99
2016-02-12T10:14:45.028Z,48.99
2016-02-12T10:15:45.014Z,49.09
2016-02-12T10:16:44.970Z,49.18
2016-02-12T10:17:44.958Z,49.18
2016-02-12T10:18:45.149Z,49.09
2016-02-12T10:19:44.901Z,49.09
2016-02-12T10:20:44.873Z,49.09
2016-02-12T10:21:44.859Z,49.18
2016-02-12T10:22:44.847Z,49.28
2016-02-12T10:23:44.803Z,49.09
2016-02-12T10:24:44.790Z,48.8
2016-02-12T10:25:44.762Z,49.18
2016-02-12T10:26:44.733Z,49.18
2016-02-12T10:27:44.722Z,49.09
2016-02-12T10:28:44.927Z,49.28
2016-02-12T10:29:44.665Z,49.09
2016-02-12T10:30:44.636Z,49.18
2016-02-12T10:31:44.623Z,49.09
2016-02-12T10:32:44.595Z,48.9
2016-02-12T10:33:44.707Z,49.18
2016-02-12T10:34:44.553Z,49.09
2016-02-12T10:35:44.525Z,48.71
2016-02-12T10:36:44.528Z,48.9
2016-02-12T10:37:44.469Z,49.09
2016-02-12T10:38:44.457Z,49.09
2016-02-12T10:39:44.429Z,49.18
2016-02-12T10:40:44.400Z,49.18
2016-02-12T10:41:44.371Z,49.28
2016-02-12T10:42:44.359Z,49.09
2016-02-12T10:43:44.335Z,49.18
2016-02-12T10:44:44.306Z,49.28
2016-02-12T10:45:44.294Z,49.18
2016-02-12T10:46:44.264Z,49.38
2016-02-12T10:47:44.227Z,49.18
2016-02-12T10:48:44.214Z,49.18
2016-02-12T10:49:44.184Z,49.18
2016-02-12T10:50:44.173Z,48.9
2016-02-12T10:51:44.144Z,48.99
2016-02-12T10:52:44.115Z,49.18
2016-02-12T10:53:44.103Z,48.99
2016-02-12T10:54:44.073Z,49.18
2016-02-12T10:55:44.045Z,48.99
2016-02-12T10:56:44.017Z,48.61
2016-02-12T10:57:44.003Z,49.09
2016-02-12T10:58:43.991Z,48.99
2016-02-12T10:59:43.962Z,48.61
2016-02-12T11:00:43.933Z,48.71
2016-02-12T11:01:43.905Z,49.18
2016-02-12T11:02:43.908Z,49.18
2016-02-12T11:03:43.863Z,49.09
2016-02-12T11:04:43.852Z,49.09
2016-02-12T11:05:43.808Z,49.09
2016-02-12T11:06:43.794Z,48.61
2016-02-12T11:07:43.781Z,48.99
2016-02-12T11:08:43.736Z,48.83
2016-02-12T11:09:43.739Z,48.83
2016-02-12T11:10:43.696Z,48.93
2016-02-12T11:11:43.667Z,48.83
2016-02-12T11:12:43.654Z,49.59
2016-02-12T11:13:43.627Z,49.11
2016-02-12T11:14:43.601Z,49.4
2016-02-12T11:15:43.572Z,49.21
2016-02-12T11:16:43.560Z,49.59
2016-02-12T11:17:43.531Z,49.11
2016-02-12T11:18:43.518Z,49.3
2016-02-12T11:19:43.473Z,49.21
2016-02-12T11:20:43.462Z,49.3
2016-02-12T11:21:43.434Z,49.88
2016-02-12T11:22:43.421Z,49.59
2016-02-12T11:23:43.393Z,49.21
2016-02-12T11:24:43.363Z,49.49
2016-02-12T11:25:43.616Z,49.21
2016-02-12T11:26:43.323Z,49.02
2016-02-12T11:27:43.309Z,48.64
2016-02-12T11:28:43.281Z,49.21
2016-02-12T11:29:43.100Z,49.69
2016-02-12T11:30:43.384Z,49.11
2016-02-12T11:31:43.200Z,49.59
2016-02-12T11:32:43.187Z,49.98
2016-02-12T11:33:43.158Z,49.69
2016-02-12T11:34:43.145Z,50.84
2016-02-12T11:35:43.133Z,49.69
2016-02-12T11:36:43.088Z,49.11
2016-02-12T11:37:43.075Z,49.59
2016-02-12T11:38:43.047Z,50.74
2016-02-12T11:39:43.021Z,49.69
2016-02-12T11:40:43.055Z,49.59
2016-02-12T11:41:42.980Z,49.78
2016-02-12T11:42:42.967Z,49.11
2016-02-12T11:43:42.938Z,49.78
2016-02-12T11:44:42.914Z,49.88
2016-02-12T11:45:42.885Z,49.3
2016-02-12T11:46:42.904Z,49.88
2016-02-12T11:47:42.844Z,49.3
2016-02-12T11:48:42.816Z,49.4
2016-02-12T11:49:42.787Z,49.21
2016-02-12T11:50:42.775Z,49.3
2016-02-12T11:51:42.763Z,49.98
2016-02-12T11:52:42.718Z,49.4
2016-02-12T11:53:42.705Z,48.93
2016-02-12T11:54:42.692Z,49.11
2016-02-12T11:55:42.508Z,49.21
2016-02-12T11:56:42.637Z,49.78
2016-02-12T11:57:42.624Z,49.49
2016-02-12T11:58:42.580Z,49.4
2016-02-12T11:59:42.569Z,48.93
2016-02-12T12:00:42.540Z,48.93
2016-02-12T12:01:42.528Z,49.4
2016-02-12T12:02:42.500Z,49.11
2016-02-12T12:03:42.486Z,48.83
2016-02-12T12:04:42.473Z,48.18
2016-02-12T12:05:42.446Z,48.28
2016-02-12T12:06:42.448Z,47.52
2016-02-12T12:07:42.390Z,47.89
2016-02-12T12:08:42.377Z,48.18
2016-02-12T12:09:42.349Z,48.75
2016-02-12T12:10:42.319Z,47.99
2016-02-12T12:11:42.307Z,47.8
2016-02-12T12:12:42.278Z,48.09
2016-02-12T12:13:42.249Z,47.89
2016-02-12T12:14:42.221Z,47.89
2016-02-12T12:15:42.208Z,47.8
2016-02-12T12:16:42.182Z,47.42
2016-02-12T12:17:42.169Z,47.8
2016-02-12T12:18:42.140Z,47.23
2016-02-12T12:19:42.112Z,47.03
2016-02-12T12:20:42.084Z,47.23
2016-02-12T12:21:42.101Z,47.32
2016-02-12T12:22:42.042Z,47.13
2016-02-12T12:23:42.029Z,47.25
2016-02-12T12:24:42.000Z,47.23
2016-02-12T12:25:41.988Z,47.42
2016-02-12T12:26:41.975Z,47.34
2016-02-12T12:27:41.946Z,47.25
2016-02-12T12:28:41.918Z,46.77
2016-02-12T12:29:41.889Z,46.67
2016-02-12T12:30:41.862Z,46.87
2016-02-12T12:31:41.849Z,46.1
2016-02-12T12:32:41.820Z,46.3
2016-02-12T12:33:41.824Z,45.91
2016-02-12T12:34:41.795Z,46.1
2016-02-12T12:35:41.766Z,46.58
2016-02-12T12:36:41.738Z,46.58
2016-02-12T12:37:41.725Z,46.67
2016-02-12T12:38:41.696Z,46.96
2016-02-12T12:39:41.684Z,46.67
2016-02-12T12:40:41.652Z,46.1
2016-02-12T12:41:41.644Z,45.72
2016-02-12T12:42:41.475Z,45.91
2016-02-12T12:43:41.587Z,46.1
2016-02-12T12:44:41.574Z,46.2
2016-02-12T12:45:41.546Z,46.1
2016-02-12T12:46:41.549Z,46.48
2016-02-12T12:47:41.505Z,46.39
2016-02-12T12:48:41.476Z,46.87
2016-02-12T12:49:41.479Z,46.58
2016-02-12T12:50:41.435Z,46.87
2016-02-12T12:51:41.438Z,48.02
2016-02-12T12:52:41.394Z,47.53
2016-02-12T12:53:41.382Z,47.25
2016-02-12T12:54:41.353Z,47.06